sensor_id;sensor_type;location;lat;lon;timestamp;pressure;altitude;pressure_sealevel;temperature;humidity
36828;BME280;22766;48.042;11.192;2022-10-31T00:01:16;95559.69;;;8.40;100.00
36828;BME280;22766;48.042;11.192;2022-10-31T00:03:43;95562.84;;;8.44;100.00
36828;BME280;22766;48.042;11.192;2022-10-31T00:06:10;95563.66;;;8.44;100.00
36828;BME280;22766;48.042;11.192;2022-10-31T00:08:37;95554.44;;;8.42;100.00
36828;BME280;22766;48.042;11.192;2022-10-31T00:11:03;95556.31;;;8.40;100.00
36828;BME280;22766;48.042;11.192;2022-10-31T00:13:31;95558.66;;;8.43;100.00
36828;BME280;22766;48.042;11.192;2022-10-31T00:15:57;95557.19;;;8.50;100.00
36828;BME280;22766;48.042;11.192;2022-10-31T00:18:24;95557.81;;;8.42;100.00
36828;BME280;22766;48.042;11.192;2022-10-31T00:20:59;95567.53;;;8.60;100.00
36828;BME280;22766;48.042;11.192;2022-10-31T00:23:25;95567.75;;;8.68;100.00
36828;BME280;22766;48.042;11.192;2022-10-31T00:25:52;95569.22;;;8.70;100.00
36828;BME280;22766;48.042;11.192;2022-10-31T00:28:18;95569.00;;;8.53;100.00
36828;BME280;22766;48.042;11.192;2022-10-31T00:30:50;95572.00;;;8.37;100.00
36828;BME280;22766;48.042;11.192;2022-10-31T00:33:16;95565.50;;;8.22;100.00
36828;BME280;22766;48.042;11.192;2022-10-31T00:35:49;95569.63;;;8.13;100.00
36828;BME280;22766;48.042;11.192;2022-10-31T00:38:16;95566.94;;;8.15;100.00
36828;BME280;22766;48.042;11.192;2022-10-31T00:40:43;95564.44;;;8.24;100.00
36828;BME280;22766;48.042;11.192;2022-10-31T00:43:09;95563.66;;;8.44;100.00
36828;BME280;22766;48.042;11.192;2022-10-31T00:45:37;95560.53;;;8.62;100.00
36828;BME280;22766;48.042;11.192;2022-10-31T00:48:04;95563.56;;;8.76;100.00
36828;BME280;22766;48.042;11.192;2022-10-31T00:50:31;95568.34;;;8.81;100.00
36828;BME280;22766;48.042;11.192;2022-10-31T00:52:58;95565.66;;;8.82;100.00
36828;BME280;22766;48.042;11.192;2022-10-31T00:55:24;95572.81;;;8.79;100.00
36828;BME280;22766;48.042;11.192;2022-10-31T00:57:51;95571.84;;;8.80;100.00
36828;BME280;22766;48.042;11.192;2022-10-31T01:00:19;95572.00;;;8.78;100.00
36828;BME280;22766;48.042;11.192;2022-10-31T01:02:47;95566.97;;;8.77;100.00
36828;BME280;22766;48.042;11.192;2022-10-31T01:05:14;95568.59;;;8.78;100.00
36828;BME280;22766;48.042;11.192;2022-10-31T01:07:41;95566.84;;;8.78;100.00
36828;BME280;22766;48.042;11.192;2022-10-31T01:10:09;95563.56;;;8.76;100.00
36828;BME280;22766;48.042;11.192;2022-10-31T01:12:41;95563.66;;;8.65;100.00
36828;BME280;22766;48.042;11.192;2022-10-31T01:15:08;95559.75;;;8.50;100.00
36828;BME280;22766;48.042;11.192;2022-10-31T01:17:35;95551.56;;;8.35;100.00
36828;BME280;22766;48.042;11.192;2022-10-31T01:20:03;95556.53;;;8.16;100.00
36828;BME280;22766;48.042;11.192;2022-10-31T01:22:30;95554.69;;;8.07;100.00
36828;BME280;22766;48.042;11.192;2022-10-31T01:25:02;95548.53;;;7.99;100.00
36828;BME280;22766;48.042;11.192;2022-10-31T01:27:29;95558.69;;;8.00;100.00
36828;BME280;22766;48.042;11.192;2022-10-31T01:29:55;95556.59;;;8.05;100.00
36828;BME280;22766;48.042;11.192;2022-10-31T01:32:22;95564.69;;;8.21;100.00
36828;BME280;22766;48.042;11.192;2022-10-31T01:34:50;95562.69;;;8.25;100.00
36828;BME280;22766;48.042;11.192;2022-10-31T01:37:16;95557.66;;;8.23;100.00
36828;BME280;22766;48.042;11.192;2022-10-31T01:39:43;95560.97;;;8.14;100.00
36828;BME280;22766;48.042;11.192;2022-10-31T01:42:16;95563.09;;;8.09;100.00
36828;BME280;22766;48.042;11.192;2022-10-31T01:44:56;95552.44;;;8.14;100.00
36828;BME280;22766;48.042;11.192;2022-10-31T01:47:33;95547.16;;;8.15;100.00
36828;BME280;22766;48.042;11.192;2022-10-31T01:50:06;95548.28;;;8.02;100.00
36828;BME280;22766;48.042;11.192;2022-10-31T01:52:39;95549.63;;;7.85;100.00
36828;BME280;22766;48.042;11.192;2022-10-31T01:55:15;95544.06;;;7.80;100.00
36828;BME280;22766;48.042;11.192;2022-10-31T01:57:44;95551.47;;;7.94;100.00
36828;BME280;22766;48.042;11.192;2022-10-31T02:00:15;95543.13;;;8.02;100.00
36828;BME280;22766;48.042;11.192;2022-10-31T02:02:42;95543.34;;;8.10;100.00
36828;BME280;22766;48.042;11.192;2022-10-31T02:05:12;95542.84;;;8.16;100.00
36828;BME280;22766;48.042;11.192;2022-10-31T02:08:05;95542.97;;;8.14;100.00
36828;BME280;22766;48.042;11.192;2022-10-31T02:10:36;95539.56;;;7.93;100.00
36828;BME280;22766;48.042;11.192;2022-10-31T02:13:05;95548.03;;;7.73;100.00
36828;BME280;22766;48.042;11.192;2022-10-31T02:15:36;95543.50;;;7.66;100.00
36828;BME280;22766;48.042;11.192;2022-10-31T02:18:05;95542.72;;;7.54;100.00
36828;BME280;22766;48.042;11.192;2022-10-31T02:20:45;95540.97;;;7.54;100.00
36828;BME280;22766;48.042;11.192;2022-10-31T02:23:58;95538.63;;;7.51;100.00
36828;BME280;22766;48.042;11.192;2022-10-31T02:31:46;95545.56;;;7.40;100.00
36828;BME280;22766;48.042;11.192;2022-10-31T02:34:22;95542.13;;;7.50;100.00
36828;BME280;22766;48.042;11.192;2022-10-31T02:36:58;95545.66;;;7.49;100.00
36828;BME280;22766;48.042;11.192;2022-10-31T02:39:44;95540.88;;;7.45;100.00
36828;BME280;22766;48.042;11.192;2022-10-31T02:42:36;95548.13;;;7.40;100.00
36828;BME280;22766;48.042;11.192;2022-10-31T02:47:45;95545.31;;;7.32;100.00
36828;BME280;22766;48.042;11.192;2022-10-31T02:50:29;95543.00;;;7.29;100.00
36828;BME280;22766;48.042;11.192;2022-10-31T02:52:58;95545.69;;;7.27;100.00
36828;BME280;22766;48.042;11.192;2022-10-31T02:58:09;95535.78;;;7.23;100.00
36828;BME280;22766;48.042;11.192;2022-10-31T03:00:49;95532.84;;;7.16;100.00
36828;BME280;22766;48.042;11.192;2022-10-31T03:08:54;95529.78;;;7.33;100.00
36828;BME280;22766;48.042;11.192;2022-10-31T03:11:24;95532.56;;;7.52;100.00
36828;BME280;22766;48.042;11.192;2022-10-31T03:14:03;95532.50;;;7.64;100.00
36828;BME280;22766;48.042;11.192;2022-10-31T03:16:48;95531.47;;;7.66;100.00
36828;BME280;22766;48.042;11.192;2022-10-31T03:19:29;95530.19;;;7.61;100.00
36828;BME280;22766;48.042;11.192;2022-10-31T03:22:10;95533.38;;;7.53;100.00
36828;BME280;22766;48.042;11.192;2022-10-31T03:24:39;95541.72;;;7.34;100.00
36828;BME280;22766;48.042;11.192;2022-10-31T03:27:08;95535.78;;;7.12;100.00
36828;BME280;22766;48.042;11.192;2022-10-31T03:29:37;95537.28;;;7.03;100.00
36828;BME280;22766;48.042;11.192;2022-10-31T03:34:35;95536.38;;;6.93;100.00
36828;BME280;22766;48.042;11.192;2022-10-31T03:37:07;95535.91;;;6.88;100.00
36828;BME280;22766;48.042;11.192;2022-10-31T03:39:37;95548.28;;;6.94;100.00
36828;BME280;22766;48.042;11.192;2022-10-31T03:42:09;95543.72;;;6.87;100.00
36828;BME280;22766;48.042;11.192;2022-10-31T03:44:37;95551.56;;;6.85;100.00
36828;BME280;22766;48.042;11.192;2022-10-31T03:47:07;95553.53;;;6.82;100.00
36828;BME280;22766;48.042;11.192;2022-10-31T03:49:34;95555.28;;;6.81;100.00
36828;BME280;22766;48.042;11.192;2022-10-31T03:52:11;95557.59;;;6.84;100.00
36828;BME280;22766;48.042;11.192;2022-10-31T03:54:42;95553.53;;;6.82;100.00
36828;BME280;22766;48.042;11.192;2022-10-31T04:00:15;95549.44;;;6.68;100.00
36828;BME280;22766;48.042;11.192;2022-10-31T04:02:52;95549.56;;;6.67;100.00
36828;BME280;22766;48.042;11.192;2022-10-31T04:05:22;95544.53;;;6.65;100.00
36828;BME280;22766;48.042;11.192;2022-10-31T04:07:53;95547.56;;;6.70;100.00
36828;BME280;22766;48.042;11.192;2022-10-31T04:10:22;95549.06;;;6.73;100.00
36828;BME280;22766;48.042;11.192;2022-10-31T04:13:03;95555.28;;;6.81;100.00
36828;BME280;22766;48.042;11.192;2022-10-31T04:15:44;95557.84;;;6.81;100.00
36828;BME280;22766;48.042;11.192;2022-10-31T04:18:11;95551.19;;;6.79;100.00
36828;BME280;22766;48.042;11.192;2022-10-31T04:20:40;95549.19;;;6.71;100.00
36828;BME280;22766;48.042;11.192;2022-10-31T04:23:20;95547.69;;;6.69;100.00
36828;BME280;22766;48.042;11.192;2022-10-31T04:25:47;95546.16;;;6.66;100.00
36828;BME280;22766;48.042;11.192;2022-10-31T04:28:15;95545.59;;;6.63;100.00
36828;BME280;22766;48.042;11.192;2022-10-31T04:30:42;95548.72;;;6.55;100.00
36828;BME280;22766;48.042;11.192;2022-10-31T04:33:09;95539.84;;;6.48;100.00
36828;BME280;22766;48.042;11.192;2022-10-31T04:35:36;95548.47;;;6.47;100.00
36828;BME280;22766;48.042;11.192;2022-10-31T04:38:02;95543.34;;;6.47;100.00
36828;BME280;22766;48.042;11.192;2022-10-31T04:40:29;95544.25;;;6.46;100.00
36828;BME280;22766;48.042;11.192;2022-10-31T04:43:28;95536.34;;;6.38;100.00
36828;BME280;22766;48.042;11.192;2022-10-31T04:45:54;95536.66;;;6.33;100.00
36828;BME280;22766;48.042;11.192;2022-10-31T04:48:21;95539.22;;;6.22;100.00
36828;BME280;22766;48.042;11.192;2022-10-31T04:50:48;95541.41;;;6.16;100.00
36828;BME280;22766;48.042;11.192;2022-10-31T04:53:14;95531.38;;;6.13;100.00
36828;BME280;22766;48.042;11.192;2022-10-31T04:56:00;95536.50;;;6.13;100.00
36828;BME280;22766;48.042;11.192;2022-10-31T04:58:35;95530.66;;;6.11;100.00
36828;BME280;22766;48.042;11.192;2022-10-31T05:01:05;95531.59;;;6.10;100.00
36828;BME280;22766;48.042;11.192;2022-10-31T05:03:32;95533.25;;;6.11;100.00
36828;BME280;22766;48.042;11.192;2022-10-31T05:05:59;95531.50;;;6.11;100.00
36828;BME280;22766;48.042;11.192;2022-10-31T05:08:26;95533.34;;;6.09;100.00
36828;BME280;22766;48.042;11.192;2022-10-31T05:10:54;95531.72;;;6.08;100.00
36828;BME280;22766;48.042;11.192;2022-10-31T05:13:23;95527.63;;;6.06;100.00
36828;BME280;22766;48.042;11.192;2022-10-31T05:16:08;95527.63;;;6.06;100.00
36828;BME280;22766;48.042;11.192;2022-10-31T05:18:54;95522.03;;;6.12;100.00
36828;BME280;22766;48.042;11.192;2022-10-31T05:21:35;95526.69;;;6.07;100.00
36828;BME280;22766;48.042;11.192;2022-10-31T05:24:02;95522.59;;;6.04;100.00
36828;BME280;22766;48.042;11.192;2022-10-31T05:26:30;95525.66;;;6.09;100.00
36828;BME280;22766;48.042;11.192;2022-10-31T05:28:56;95524.41;;;6.26;100.00
36828;BME280;22766;48.042;11.192;2022-10-31T05:31:23;95518.53;;;6.47;100.00
36828;BME280;22766;48.042;11.192;2022-10-31T05:33:52;95516.28;;;6.54;100.00
36828;BME280;22766;48.042;11.192;2022-10-31T05:36:37;95517.81;;;6.56;100.00
36828;BME280;22766;48.042;11.192;2022-10-31T05:39:17;95522.69;;;6.48;100.00
36828;BME280;22766;48.042;11.192;2022-10-31T05:41:47;95513.13;;;6.39;100.00
36828;BME280;22766;48.042;11.192;2022-10-31T05:44:18;95520.25;;;6.36;100.00
36828;BME280;22766;48.042;11.192;2022-10-31T05:47:06;95520.44;;;6.22;100.00
36828;BME280;22766;48.042;11.192;2022-10-31T05:50:05;95512.72;;;6.11;100.00
36828;BME280;22766;48.042;11.192;2022-10-31T05:52:47;95507.59;;;6.00;100.00
36828;BME280;22766;48.042;11.192;2022-10-31T05:55:20;95507.06;;;5.95;100.00
36828;BME280;22766;48.042;11.192;2022-10-31T05:58:02;95512.81;;;5.98;100.00
36828;BME280;22766;48.042;11.192;2022-10-31T06:00:30;95513.47;;;5.89;100.00
36828;BME280;22766;48.042;11.192;2022-10-31T06:03:06;95518.94;;;5.85;100.00
36828;BME280;22766;48.042;11.192;2022-10-31T06:05:51;95517.63;;;5.79;100.00
36828;BME280;22766;48.042;11.192;2022-10-31T06:08:23;95518.75;;;5.75;100.00
36828;BME280;22766;48.042;11.192;2022-10-31T06:10:50;95518.53;;;5.78;100.00
36828;BME280;22766;48.042;11.192;2022-10-31T06:13:27;95511.88;;;5.76;100.00
36828;BME280;22766;48.042;11.192;2022-10-31T06:16:00;95525.31;;;5.79;100.00
36828;BME280;22766;48.042;11.192;2022-10-31T06:18:33;95517.28;;;5.84;100.00
36828;BME280;22766;48.042;11.192;2022-10-31T06:20:59;95513.59;;;5.88;100.00
36828;BME280;22766;48.042;11.192;2022-10-31T06:23:27;95519.81;;;5.96;100.00
36828;BME280;22766;48.042;11.192;2022-10-31T06:26:13;95516.56;;;6.05;100.00
36828;BME280;22766;48.042;11.192;2022-10-31T06:28:40;95520.03;;;6.04;100.00
36828;BME280;22766;48.042;11.192;2022-10-31T06:31:23;95515.41;;;6.09;100.00
36828;BME280;22766;48.042;11.192;2022-10-31T06:33:49;95515.28;;;6.11;100.00
36828;BME280;22766;48.042;11.192;2022-10-31T06:36:16;95517.72;;;6.12;100.00
36828;BME280;22766;48.042;11.192;2022-10-31T06:38:43;95511.69;;;6.13;100.00
36828;BME280;22766;48.042;11.192;2022-10-31T06:41:10;95517.41;;;6.17;100.00
36828;BME280;22766;48.042;11.192;2022-10-31T06:43:41;95510.66;;;6.27;100.00
36828;BME280;22766;48.042;11.192;2022-10-31T06:46:26;95512.88;;;6.31;100.00
36828;BME280;22766;48.042;11.192;2022-10-31T06:49:09;95513.25;;;6.38;100.00
36828;BME280;22766;48.042;11.192;2022-10-31T06:51:49;95518.72;;;6.44;100.00
36828;BME280;22766;48.042;11.192;2022-10-31T06:54:16;95519.56;;;6.56;100.00
36828;BME280;22766;48.042;11.192;2022-10-31T06:56:46;95513.53;;;6.68;100.00
36828;BME280;22766;48.042;11.192;2022-10-31T06:59:14;95522.50;;;6.85;100.00
36828;BME280;22766;48.042;11.192;2022-10-31T07:02:03;95524.72;;;7.00;100.00
36828;BME280;22766;48.042;11.192;2022-10-31T07:04:31;95525.03;;;7.07;100.00
36828;BME280;22766;48.042;11.192;2022-10-31T07:06:58;95531.09;;;7.17;100.00
36828;BME280;22766;48.042;11.192;2022-10-31T07:09:24;95531.34;;;7.25;100.00
36828;BME280;22766;48.042;11.192;2022-10-31T07:11:52;95527.22;;;7.33;100.00
36828;BME280;22766;48.042;11.192;2022-10-31T07:14:20;95526.41;;;7.44;100.00
36828;BME280;22766;48.042;11.192;2022-10-31T07:16:50;95525.66;;;7.53;100.00
36828;BME280;22766;48.042;11.192;2022-10-31T07:19:22;95523.06;;;7.64;100.00
36828;BME280;22766;48.042;11.192;2022-10-31T07:21:49;95532.94;;;7.80;100.00
36828;BME280;22766;48.042;11.192;2022-10-31T07:24:16;95532.28;;;7.98;100.00
36828;BME280;22766;48.042;11.192;2022-10-31T07:26:42;95526.22;;;8.20;100.00
36828;BME280;22766;48.042;11.192;2022-10-31T07:29:09;95523.50;;;8.32;100.00
36828;BME280;22766;48.042;11.192;2022-10-31T07:31:36;95530.78;;;8.48;100.00
36828;BME280;22766;48.042;11.192;2022-10-31T07:34:10;95530.47;;;8.62;100.00
36828;BME280;22766;48.042;11.192;2022-10-31T07:36:55;95525.81;;;8.86;100.00
36828;BME280;22766;48.042;11.192;2022-10-31T07:39:22;95523.88;;;9.09;100.00
36828;BME280;22766;48.042;11.192;2022-10-31T07:41:49;95532.09;;;9.33;100.00
36828;BME280;22766;48.042;11.192;2022-10-31T07:44:18;95521.69;;;9.63;100.00
36828;BME280;22766;48.042;11.192;2022-10-31T07:47:03;95520.25;;;9.99;100.00
36828;BME280;22766;48.042;11.192;2022-10-31T07:50:06;95518.75;;;10.44;100.00
36828;BME280;22766;48.042;11.192;2022-10-31T07:53:04;95511.28;;;10.87;100.00
36828;BME280;22766;48.042;11.192;2022-10-31T07:55:50;95511.13;;;11.25;100.00
36828;BME280;22766;48.042;11.192;2022-10-31T07:58:18;95511.31;;;11.42;100.00
36828;BME280;22766;48.042;11.192;2022-10-31T08:00:46;95509.41;;;11.88;100.00
36828;BME280;22766;48.042;11.192;2022-10-31T08:03:19;95507.53;;;12.16;100.00
36828;BME280;22766;48.042;11.192;2022-10-31T08:05:57;95506.00;;;12.66;100.00
36828;BME280;22766;48.042;11.192;2022-10-31T08:08:53;95504.00;;;13.11;100.00
36828;BME280;22766;48.042;11.192;2022-10-31T08:11:21;95499.31;;;13.57;100.00
36828;BME280;22766;48.042;11.192;2022-10-31T08:13:48;95501.34;;;14.03;100.00
36828;BME280;22766;48.042;11.192;2022-10-31T08:16:14;95498.94;;;14.26;100.00
36828;BME280;22766;48.042;11.192;2022-10-31T08:18:50;95500.75;;;14.49;100.00
36828;BME280;22766;48.042;11.192;2022-10-31T08:21:16;95493.25;;;14.46;100.00
36828;BME280;22766;48.042;11.192;2022-10-31T08:23:44;95488.19;;;14.61;100.00
36828;BME280;22766;48.042;11.192;2022-10-31T08:26:13;95484.13;;;14.74;100.00
36828;BME280;22766;48.042;11.192;2022-10-31T08:28:41;95485.50;;;15.09;100.00
36828;BME280;22766;48.042;11.192;2022-10-31T08:31:08;95483.09;;;15.46;100.00
36828;BME280;22766;48.042;11.192;2022-10-31T08:33:39;95476.75;;;15.41;100.00
36828;BME280;22766;48.042;11.192;2022-10-31T08:36:17;95464.31;;;15.67;100.00
36828;BME280;22766;48.042;11.192;2022-10-31T08:38:50;95466.56;;;15.70;100.00
36828;BME280;22766;48.042;11.192;2022-10-31T08:41:16;95465.50;;;16.24;100.00
36828;BME280;22766;48.042;11.192;2022-10-31T08:43:43;95463.47;;;15.66;100.00
36828;BME280;22766;48.042;11.192;2022-10-31T08:46:10;95460.13;;;16.48;100.00
36828;BME280;22766;48.042;11.192;2022-10-31T08:48:38;95461.88;;;17.14;100.00
36828;BME280;22766;48.042;11.192;2022-10-31T08:51:05;95459.47;;;16.98;100.00
36828;BME280;22766;48.042;11.192;2022-10-31T08:53:32;95451.56;;;17.21;100.00
36828;BME280;22766;48.042;11.192;2022-10-31T08:56:18;95453.06;;;17.30;100.00
36828;BME280;22766;48.042;11.192;2022-10-31T08:58:45;95449.91;;;18.06;100.00
36828;BME280;22766;48.042;11.192;2022-10-31T09:01:13;95451.97;;;17.39;100.00
36828;BME280;22766;48.042;11.192;2022-10-31T09:03:41;95451.13;;;17.67;100.00
36828;BME280;22766;48.042;11.192;2022-10-31T09:06:09;95440.44;;;18.26;100.00
36828;BME280;22766;48.042;11.192;2022-10-31T09:08:36;95448.22;;;18.40;100.00
36828;BME280;22766;48.042;11.192;2022-10-31T09:11:03;95435.25;;;18.81;100.00
36828;BME280;22766;48.042;11.192;2022-10-31T09:13:48;95432.19;;;18.43;100.00
36828;BME280;22766;48.042;11.192;2022-10-31T09:16:47;95432.16;;;18.22;100.00
36828;BME280;22766;48.042;11.192;2022-10-31T09:19:20;95425.19;;;19.12;100.00
36828;BME280;22766;48.042;11.192;2022-10-31T09:21:47;95428.38;;;19.48;97.11
36828;BME280;22766;48.042;11.192;2022-10-31T09:24:14;95428.06;;;19.91;98.31
36828;BME280;22766;48.042;11.192;2022-10-31T09:26:41;95433.59;;;20.22;93.17
36828;BME280;22766;48.042;11.192;2022-10-31T09:29:24;95422.50;;;20.66;89.25
36828;BME280;22766;48.042;11.192;2022-10-31T09:31:56;95429.13;;;20.88;91.16
36828;BME280;22766;48.042;11.192;2022-10-31T09:34:32;95414.72;;;21.29;85.52
36828;BME280;22766;48.042;11.192;2022-10-31T09:37:08;95413.84;;;22.24;77.49
36828;BME280;22766;48.042;11.192;2022-10-31T09:39:35;95423.28;;;22.32;74.64
36828;BME280;22766;48.042;11.192;2022-10-31T09:42:44;95413.72;;;22.86;66.56
36828;BME280;22766;48.042;11.192;2022-10-31T09:45:39;95420.66;;;22.81;64.21
36828;BME280;22766;48.042;11.192;2022-10-31T09:52:24;95411.63;;;22.70;65.86
36828;BME280;22766;48.042;11.192;2022-10-31T09:54:57;95408.47;;;23.04;65.64
36828;BME280;22766;48.042;11.192;2022-10-31T09:57:30;95406.06;;;23.21;57.98
36828;BME280;22766;48.042;11.192;2022-10-31T09:59:58;95403.44;;;22.85;59.66
36828;BME280;22766;48.042;11.192;2022-10-31T10:02:39;95403.06;;;22.99;60.33
36828;BME280;22766;48.042;11.192;2022-10-31T10:05:12;95396.97;;;22.81;56.29
36828;BME280;22766;48.042;11.192;2022-10-31T10:07:59;95400.25;;;22.52;60.26
36828;BME280;22766;48.042;11.192;2022-10-31T10:27:16;95382.69;;;22.70;60.12
36828;BME280;22766;48.042;11.192;2022-10-31T10:30:07;95386.34;;;22.20;61.36
36828;BME280;22766;48.042;11.192;2022-10-31T10:32:45;95379.75;;;22.11;64.14
36828;BME280;22766;48.042;11.192;2022-10-31T10:37:46;95366.19;;;22.07;67.16
36828;BME280;22766;48.042;11.192;2022-10-31T10:40:16;95365.56;;;22.37;65.29
36828;BME280;22766;48.042;11.192;2022-10-31T10:42:47;95353.16;;;22.19;65.94
36828;BME280;22766;48.042;11.192;2022-10-31T10:45:37;95355.25;;;22.10;67.87
36828;BME280;22766;48.042;11.192;2022-10-31T10:51:06;95344.59;;;22.91;59.37
36828;BME280;22766;48.042;11.192;2022-10-31T10:54:33;95336.84;;;23.14;62.01
36828;BME280;22766;48.042;11.192;2022-10-31T10:59:45;95340.69;;;24.19;53.24
36828;BME280;22766;48.042;11.192;2022-10-31T11:02:21;95332.66;;;24.02;49.97
36828;BME280;22766;48.042;11.192;2022-10-31T11:04:54;95326.38;;;23.85;51.11
36828;BME280;22766;48.042;11.192;2022-10-31T11:07:21;95321.22;;;23.90;50.58
36828;BME280;22766;48.042;11.192;2022-10-31T11:09:48;95327.47;;;23.66;49.49
36828;BME280;22766;48.042;11.192;2022-10-31T11:12:30;95317.91;;;23.05;50.77
36828;BME280;22766;48.042;11.192;2022-10-31T11:15:05;95313.53;;;22.63;51.45
36828;BME280;22766;48.042;11.192;2022-10-31T11:17:39;95314.91;;;22.66;52.48
36828;BME280;22766;48.042;11.192;2022-10-31T11:22:46;95318.66;;;22.52;54.06
36828;BME280;22766;48.042;11.192;2022-10-31T11:27:46;95315.13;;;23.78;50.58
36828;BME280;22766;48.042;11.192;2022-10-31T11:30:13;95313.41;;;23.24;50.37
36828;BME280;22766;48.042;11.192;2022-10-31T11:32:48;95312.16;;;22.79;50.15
36828;BME280;22766;48.042;11.192;2022-10-31T11:35:18;95322.72;;;22.29;53.04
36828;BME280;22766;48.042;11.192;2022-10-31T11:37:48;95311.78;;;21.52;56.47
36828;BME280;22766;48.042;11.192;2022-10-31T11:40:18;95311.03;;;20.88;63.00
36828;BME280;22766;48.042;11.192;2022-10-31T11:42:46;95318.06;;;20.94;66.38
36828;BME280;22766;48.042;11.192;2022-10-31T11:47:51;95303.06;;;19.58;69.09
36828;BME280;22766;48.042;11.192;2022-10-31T11:50:34;95299.34;;;19.14;69.99
36828;BME280;22766;48.042;11.192;2022-10-31T11:53:03;95293.72;;;18.63;69.89
36828;BME280;22766;48.042;11.192;2022-10-31T11:55:38;95298.34;;;18.67;71.91
36828;BME280;22766;48.042;11.192;2022-10-31T11:58:20;95303.88;;;18.86;71.68
36828;BME280;22766;48.042;11.192;2022-10-31T12:00:54;95290.81;;;18.92;71.31
36828;BME280;22766;48.042;11.192;2022-10-31T12:03:38;95306.09;;;19.55;71.51
36828;BME280;22766;48.042;11.192;2022-10-31T12:06:16;95298.44;;;20.39;65.99
36828;BME280;22766;48.042;11.192;2022-10-31T12:08:45;95293.63;;;21.00;65.06
36828;BME280;22766;48.042;11.192;2022-10-31T12:17:26;95290.72;;;23.82;49.76
36828;BME280;22766;48.042;11.192;2022-10-31T12:20:20;95292.84;;;24.61;48.76
36828;BME280;22766;48.042;11.192;2022-10-31T12:28:41;95277.31;;;26.34;40.70
36828;BME280;22766;48.042;11.192;2022-10-31T12:37:25;95259.72;;;27.47;36.79
36828;BME280;22766;48.042;11.192;2022-10-31T12:40:01;95260.50;;;26.23;38.64
36828;BME280;22766;48.042;11.192;2022-10-31T12:45:27;95253.09;;;23.75;43.57
36828;BME280;22766;48.042;11.192;2022-10-31T13:01:34;95226.16;;;24.54;46.61
36828;BME280;22766;48.042;11.192;2022-10-31T13:06:57;95224.19;;;23.57;48.42
36828;BME280;22766;48.042;11.192;2022-10-31T13:09:35;95214.50;;;22.80;53.49
36828;BME280;22766;48.042;11.192;2022-10-31T13:12:15;95210.81;;;21.91;62.27
36828;BME280;22766;48.042;11.192;2022-10-31T13:14:46;95210.50;;;21.25;69.36
36828;BME280;22766;48.042;11.192;2022-10-31T13:17:36;95210.22;;;20.95;74.19
36828;BME280;22766;48.042;11.192;2022-10-31T13:22:53;95210.75;;;20.22;82.49
36828;BME280;22766;48.042;11.192;2022-10-31T13:25:30;95213.78;;;20.06;85.71
36828;BME280;22766;48.042;11.192;2022-10-31T13:28:03;95209.56;;;19.92;89.55
36828;BME280;22766;48.042;11.192;2022-10-31T13:30:34;95208.56;;;20.06;86.21
36828;BME280;22766;48.042;11.192;2022-10-31T13:33:14;95207.53;;;20.07;89.94
36828;BME280;22766;48.042;11.192;2022-10-31T13:38:30;95206.88;;;20.37;81.74
36828;BME280;22766;48.042;11.192;2022-10-31T13:49:00;95185.50;;;22.14;81.51
36828;BME280;22766;48.042;11.192;2022-10-31T13:51:29;95184.78;;;23.97;67.58
36828;BME280;22766;48.042;11.192;2022-10-31T13:54:00;95183.31;;;25.32;53.73
36828;BME280;22766;48.042;11.192;2022-10-31T13:56:32;95172.72;;;24.87;51.16
36828;BME280;22766;48.042;11.192;2022-10-31T14:01:31;95169.63;;;23.58;56.67
36828;BME280;22766;48.042;11.192;2022-10-31T14:09:39;95166.28;;;25.89;45.35
36828;BME280;22766;48.042;11.192;2022-10-31T14:12:14;95159.63;;;26.63;43.83
36828;BME280;22766;48.042;11.192;2022-10-31T14:14:54;95161.97;;;27.08;40.81
36828;BME280;22766;48.042;11.192;2022-10-31T14:17:30;95159.63;;;27.11;40.23
36828;BME280;22766;48.042;11.192;2022-10-31T14:22:39;95157.53;;;25.55;44.04
36828;BME280;22766;48.042;11.192;2022-10-31T14:25:31;95161.41;;;24.63;44.50
36828;BME280;22766;48.042;11.192;2022-10-31T14:28:00;95161.41;;;23.77;50.65
36828;BME280;22766;48.042;11.192;2022-10-31T14:30:30;95157.59;;;24.82;47.94
36828;BME280;22766;48.042;11.192;2022-10-31T14:33:02;95148.78;;;25.38;46.08
36828;BME280;22766;48.042;11.192;2022-10-31T14:35:44;95155.31;;;25.64;43.84
36828;BME280;22766;48.042;11.192;2022-10-31T14:38:23;95151.09;;;24.62;47.27
36828;BME280;22766;48.042;11.192;2022-10-31T14:52:07;95133.09;;;20.14;72.90
36828;BME280;22766;48.042;11.192;2022-10-31T14:54:40;95143.63;;;19.95;73.44
36828;BME280;22766;48.042;11.192;2022-10-31T14:57:20;95135.28;;;19.60;77.76
36828;BME280;22766;48.042;11.192;2022-10-31T14:59:52;95124.97;;;19.19;80.22
36828;BME280;22766;48.042;11.192;2022-10-31T15:02:32;95130.03;;;19.14;84.44
36828;BME280;22766;48.042;11.192;2022-10-31T15:05:07;95124.56;;;18.96;86.58
36828;BME280;22766;48.042;11.192;2022-10-31T15:07:35;95121.53;;;18.80;85.06
36828;BME280;22766;48.042;11.192;2022-10-31T15:10:20;95124.91;;;18.60;83.93
36828;BME280;22766;48.042;11.192;2022-10-31T15:12:47;95126.53;;;18.55;82.01
36828;BME280;22766;48.042;11.192;2022-10-31T15:15:18;95133.44;;;18.28;89.85
36828;BME280;22766;48.042;11.192;2022-10-31T15:17:49;95126.44;;;17.88;93.73
36828;BME280;22766;48.042;11.192;2022-10-31T15:20:21;95127.97;;;17.76;97.33
36828;BME280;22766;48.042;11.192;2022-10-31T15:22:49;95124.88;;;17.59;100.00
36828;BME280;22766;48.042;11.192;2022-10-31T15:25:21;95130.38;;;17.43;100.00
36828;BME280;22766;48.042;11.192;2022-10-31T15:27:49;95134.47;;;17.52;100.00
36828;BME280;22766;48.042;11.192;2022-10-31T15:30:25;95131.03;;;17.24;100.00